Time;durP1;ratioP1;P1;durP2;ratioP2;P2;SDS_P1;SDS_P2;PMS_P1;PMS_P2;Temp;Humidity;BMP_temperature;BMP_pressure;BME280_temperature;BME280_humidity;BME280_pressure;Samples;Min_cycle;Max_cycle;Signal;HPM_P1;HPM_P2
2023/09/18 00:01:21;;;;;;;1.50;1.40;;;;;;;20.84;70.40;100202.03;5038092;23;20048;-94
2023/09/18 00:04:14;;;;;;;1.55;1.33;;;;;;;21.27;69.72;100236.53;5431048;23;20075;-96
2023/09/18 00:06:49;;;;;;;2.33;1.42;;;;;;;20.85;69.16;100162.69;4900801;23;20065;-96
2023/09/18 00:09:20;;;;;;;1.00;0.65;;;;;;;20.54;69.53;100150.75;4883818;29;20108;-96
2023/09/18 00:11:46;;;;;;;2.13;1.05;;;;;;;20.69;69.96;100171.47;4848522;29;20077;-94
2023/09/18 00:14:12;;;;;;;0.75;0.55;;;;;;;20.78;69.94;100196.97;4865043;29;20097;-96
2023/09/18 00:16:38;;;;;;;6.97;2.00;;;;;;;20.48;70.16;100138.56;4881186;29;20040;-93
2023/09/18 00:19:06;;;;;;;1.48;1.23;;;;;;;20.55;70.72;100168.59;4863441;29;20477;-96
2023/09/18 00:21:38;;;;;;;1.92;1.17;;;;;;;20.33;70.08;100112.50;4881912;29;20101;-95
2023/09/18 00:24:04;;;;;;;2.28;1.38;;;;;;;20.47;70.03;100126.09;4848916;29;20512;-96
2023/09/18 00:26:34;;;;;;;2.88;1.67;;;;;;;20.49;69.82;100136.72;4867223;29;20033;-95
2023/09/18 00:29:02;;;;;;;1.83;1.00;;;;;;;20.82;69.41;100166.41;4898470;23;20114;-96
2023/09/18 00:37:43;;;;;;;3.05;2.03;;;;;;;21.33;68.78;100209.38;5027817;23;20064;-94
2023/09/18 00:44:34;;;;;;;1.25;0.90;;;;;;;20.82;68.37;100120.81;5002935;23;20033;-91
2023/09/18 00:46:59;;;;;;;2.13;1.17;;;;;;;21.03;67.86;100134.94;4844429;29;20064;-93
2023/09/18 00:49:25;;;;;;;4.40;1.60;;;;;;;21.04;67.71;100143.88;4859789;29;20041;-92
2023/09/18 00:51:51;;;;;;;2.25;1.27;;;;;;;21.04;67.84;100168.00;4860056;29;20033;-92
2023/09/18 00:54:43;;;;;;;2.92;1.45;;;;;;;20.79;68.45;100147.78;4870601;29;20152;-93
2023/09/18 00:57:14;;;;;;;2.85;1.50;;;;;;;20.91;68.90;100186.50;4905616;23;20052;-96
2023/09/18 00:59:41;;;;;;;3.70;1.70;;;;;;;20.79;69.20;100187.13;4874001;29;20499;-96
2023/09/18 01:02:08;;;;;;;0.85;0.80;;;;;;;20.47;68.78;100114.53;4887770;29;20253;-96
2023/09/18 01:04:34;;;;;;;2.92;1.35;;;;;;;20.81;68.54;100153.06;4863334;29;20544;-94
2023/09/18 01:07:04;;;;;;;6.60;1.08;;;;;;;20.84;68.69;100164.50;4879590;29;20040;-95
2023/09/18 01:09:33;;;;;;;2.55;0.88;;;;;;;20.90;68.43;100156.16;4862885;29;20037;-96
2023/09/18 01:12:12;;;;;;;1.38;0.98;;;;;;;21.23;68.55;100229.59;4862643;29;20029;-94
2023/09/18 01:14:55;;;;;;;4.05;1.70;;;;;;;21.30;68.06;100212.22;4869529;29;20355;-96
2023/09/18 01:17:22;;;;;;;1.77;1.23;;;;;;;20.96;68.18;100165.69;4863015;29;20041;-95
2023/09/18 01:19:49;;;;;;;5.22;1.63;;;;;;;20.97;67.78;100131.69;4879607;29;20037;-93
2023/09/18 01:22:18;;;;;;;3.05;1.30;;;;;;;21.05;67.72;100150.94;4862499;29;20068;-95
2023/09/18 01:24:45;;;;;;;3.92;1.63;;;;;;;21.21;67.77;100169.78;4883630;29;20101;-93
2023/09/18 01:27:16;;;;;;;2.95;1.35;;;;;;;21.25;67.83;100176.72;4862910;29;20044;-96
2023/09/18 01:29:46;;;;;;;2.83;1.73;;;;;;;20.88;67.86;100128.56;4879606;29;20120;-90
2023/09/18 01:32:17;;;;;;;3.95;1.00;;;;;;;20.96;67.59;100135.31;4876933;29;20048;-93
2023/09/18 01:34:49;;;;;;;1.40;0.90;;;;;;;21.28;67.36;100171.22;4861301;29;20033;-92
2023/09/18 01:40:11;;;;;;;5.28;1.30;;;;;;;20.89;67.63;100119.53;5178075;23;20061;-95
2023/09/18 01:42:57;;;;;;;2.00;1.38;;;;;;;21.54;67.35;100209.28;5071693;23;20068;-92
2023/09/18 01:48:11;;;;;;;2.03;0.90;;;;;;;20.99;67.15;100109.25;4913941;29;20053;-95
2023/09/18 01:53:12;;;;;;;1.55;0.95;;;;;;;21.26;67.28;100168.59;5420922;23;20068;-96
2023/09/18 01:55:37;;;;;;;7.80;1.17;;;;;;;21.41;67.18;100168.75;4862343;29;20048;-95
2023/09/18 01:58:04;;;;;;;1.75;1.05;;;;;;;21.28;66.99;100149.75;4861660;29;20493;-94
2023/09/18 02:00:30;;;;;;;5.82;1.20;;;;;;;21.20;66.81;100120.63;4861864;29;20076;-95
2023/09/18 02:02:57;;;;;;;2.67;1.77;;;;;;;21.31;66.63;100140.69;4845202;29;20036;-94
2023/09/18 02:05:23;;;;;;;2.45;1.67;;;;;;;21.40;66.49;100159.84;4878337;29;20041;-94
2023/09/18 02:07:49;;;;;;;1.80;1.33;;;;;;;21.43;66.72;100182.97;4860366;29;20041;-92
2023/09/18 02:10:15;;;;;;;5.05;1.55;;;;;;;21.43;66.31;100158.81;4877969;29;20085;-93
2023/09/18 02:12:40;;;;;;;2.55;1.27;;;;;;;21.41;65.85;100147.28;4878137;29;20040;-90
2023/09/18 02:18:02;;;;;;;3.05;1.75;;;;;;;21.21;66.09;100132.22;4878324;23;20080;-96
2023/09/18 02:20:27;;;;;;;2.60;1.58;;;;;;;21.19;66.19;100143.03;4861531;29;20112;-96
2023/09/18 02:22:54;;;;;;;1.80;1.52;;;;;;;21.56;66.19;100197.50;4861165;29;20033;-96
2023/09/18 02:25:20;;;;;;;1.30;1.13;;;;;;;21.46;66.18;100177.44;4860743;29;20029;-96
2023/09/18 02:27:46;;;;;;;2.30;1.75;;;;;;;21.36;65.85;100144.84;4877860;29;20113;-95
2023/09/18 02:30:12;;;;;;;0.70;0.70;;;;;;;21.52;65.76;100179.84;4843479;29;20049;-96
2023/09/18 02:33:35;;;;;;;2.65;1.20;;;;;;;21.75;65.79;100204.56;4928852;23;20056;-96
2023/09/18 02:36:03;;;;;;;0.85;0.60;;;;;;;21.50;65.71;100181.72;4890448;23;20057;-96
2023/09/18 02:38:33;;;;;;;1.02;0.95;;;;;;;21.59;65.63;100175.84;4863972;29;20061;-92
2023/09/18 02:41:41;;;;;;;1.83;1.45;;;;;;;21.22;65.63;100125.94;4875356;29;20026;-96
2023/09/18 02:44:07;;;;;;;5.00;0.93;;;;;;;21.22;65.69;100132.16;4919527;23;20049;-96
2023/09/18 02:46:33;;;;;;;1.52;1.38;;;;;;;21.45;65.28;100179.25;4862286;29;20039;-89
2023/09/18 02:48:58;;;;;;;2.03;1.70;;;;;;;21.26;65.54;100154.34;4876750;29;20508;-91
2023/09/18 02:51:25;;;;;;;1.23;1.13;;;;;;;21.26;65.56;100140.91;4876907;29;20102;-90
2023/09/18 02:53:50;;;;;;;2.70;1.42;;;;;;;21.25;66.26;100166.00;4877167;29;20511;-90
2023/09/18 02:56:16;;;;;;;9.98;1.63;;;;;;;21.20;66.22;100151.97;4873410;29;20021;-91
2023/09/18 02:58:59;;;;;;;2.78;1.30;;;;;;;21.14;66.19;100138.88;4884908;29;20057;-94
2023/09/18 03:01:25;;;;;;;1.90;1.27;;;;;;;21.24;66.46;100159.78;4845924;29;20053;-92
2023/09/18 03:03:50;;;;;;;1.65;1.08;;;;;;;21.49;66.60;100187.13;4877215;29;20033;-93
2023/09/18 03:06:16;;;;;;;1.25;1.02;;;;;;;21.52;66.20;100182.53;4875615;29;20116;-90
2023/09/18 03:08:43;;;;;;;1.48;1.10;;;;;;;21.33;66.04;100149.50;4876868;29;20037;-89
2023/09/18 03:11:12;;;;;;;9.65;1.58;;;;;;;21.57;66.38;100207.28;4876576;29;20031;-90
2023/09/18 03:13:44;;;;;;;1.73;1.00;;;;;;;21.41;66.47;100184.84;4877067;29;20045;-91
2023/09/18 03:16:10;;;;;;;1.85;1.30;;;;;;;21.22;66.54;100158.13;4860209;29;20028;-91
2023/09/18 03:18:36;;;;;;;2.38;1.63;;;;;;;21.63;66.16;100217.69;4875757;29;20029;-90
2023/09/18 03:21:02;;;;;;;1.27;0.60;;;;;;;21.49;65.78;100166.56;4862140;29;20073;-91
2023/09/18 03:23:28;;;;;;;6.90;1.00;;;;;;;21.39;65.63;100165.28;4880169;29;20063;-89
2023/09/18 03:25:53;;;;;;;3.58;1.30;;;;;;;21.39;66.30;100192.97;4880809;29;20500;-90
2023/09/18 03:28:19;;;;;;;3.10;1.33;;;;;;;21.34;66.15;100167.34;4878697;29;20033;-88
2023/09/18 03:30:44;;;;;;;1.30;1.17;;;;;;;21.26;66.13;100160.56;4876000;29;20032;-89
2023/09/18 03:33:10;;;;;;;2.55;1.38;;;;;;;21.34;66.26;100173.56;4880203;29;20044;-88
2023/09/18 03:35:47;;;;;;;2.28;1.50;;;;;;;21.22;66.18;100172.38;4880742;29;20119;-89
2023/09/18 03:38:14;;;;;;;1.95;1.10;;;;;;;21.21;66.56;100162.63;4879712;29;20044;-88
2023/09/18 03:40:39;;;;;;;5.10;0.93;;;;;;;21.23;67.17;100176.81;4863226;29;20432;-87
2023/09/18 03:43:05;;;;;;;1.45;0.77;;;;;;;21.10;67.73;100163.19;4878783;29;20037;-88
2023/09/18 03:45:30;;;;;;;1.40;1.08;;;;;;;21.14;67.68;100149.59;4863581;29;20101;-89
2023/09/18 03:47:56;;;;;;;1.85;1.20;;;;;;;21.15;67.60;100151.31;4880264;29;20033;-92
2023/09/18 03:50:21;;;;;;;1.58;0.98;;;;;;;21.10;67.54;100140.81;4881510;29;20037;-90
2023/09/18 03:52:56;;;;;;;2.58;1.95;;;;;;;21.35;67.62;100172.63;4887855;29;20039;-96
2023/09/18 03:55:43;;;;;;;4.30;1.52;;;;;;;21.32;67.69;100171.91;4895699;29;20175;-96
2023/09/18 03:58:12;;;;;;;2.78;1.92;;;;;;;21.15;67.54;100145.97;4869016;29;20068;-96
2023/09/18 04:00:52;;;;;;;5.78;1.67;;;;;;;21.27;67.63;100172.16;4902174;29;20080;-95
2023/09/18 04:03:32;;;;;;;3.40;2.20;;;;;;;21.23;67.62;100184.00;5003074;23;20065;-96
2023/09/18 04:05:58;;;;;;;1.92;1.30;;;;;;;21.11;67.79;100162.22;4858094;29;20528;-96
2023/09/18 04:08:38;;;;;;;;;;;;;;;;;;;;;
2023/09/18 04:11:09;;;;;;;3.63;1.55;;;;;;;21.38;67.84;100168.91;4851155;29;20530;-96
2023/09/18 04:13:39;;;;;;;2.47;1.55;;;;;;;21.21;67.95;100168.00;4864424;29;20033;-96
2023/09/18 04:16:07;;;;;;;1.48;0.95;;;;;;;21.18;68.32;100160.09;4849646;29;20044;-95
2023/09/18 04:18:33;;;;;;;3.90;1.40;;;;;;;21.21;68.18;100142.97;4834431;29;20073;-96
2023/09/18 04:21:01;;;;;;;2.20;1.50;;;;;;;21.29;67.65;100160.41;4864007;29;20041;-92
2023/09/18 04:23:27;;;;;;;2.05;1.70;;;;;;;21.37;67.34;100164.50;4863381;29;20037;-93
2023/09/18 04:25:53;;;;;;;2.33;1.70;;;;;;;21.38;67.33;100175.16;4880744;29;20561;-92
2023/09/18 04:28:24;;;;;;;2.25;1.17;;;;;;;21.53;67.41;100188.75;4863110;29;20064;-93
2023/09/18 04:30:49;;;;;;;2.17;1.20;;;;;;;21.47;67.74;100176.47;4876074;29;20061;-90
2023/09/18 04:33:15;;;;;;;2.22;1.50;;;;;;;21.73;67.63;100212.69;4880689;29;20491;-91
2023/09/18 04:35:41;;;;;;;2.40;1.23;;;;;;;21.41;68.13;100174.09;4880038;29;20097;-96
2023/09/18 04:38:10;;;;;;;9.18;1.77;;;;;;;21.47;67.57;100173.78;5032673;23;20019;-96
2023/09/18 04:40:36;;;;;;;3.13;1.75;;;;;;;21.73;67.43;100203.78;4863215;29;20063;-96
2023/09/18 04:43:04;;;;;;;2.50;1.63;;;;;;;21.76;67.60;100206.31;4851201;29;20614;-94
2023/09/18 04:45:30;;;;;;;9.43;1.35;;;;;;;21.72;67.54;100204.72;4865132;29;20029;-94
2023/09/18 04:47:57;;;;;;;4.88;1.38;;;;;;;21.46;66.80;100166.72;5024906;23;20056;-94
2023/09/18 04:50:23;;;;;;;1.30;0.82;;;;;;;21.41;67.36;100164.25;4875197;29;20033;-96
2023/09/18 04:52:50;;;;;;;1.55;1.25;;;;;;;21.45;66.70;100163.13;4889382;29;20054;-93
2023/09/18 05:00:41;;;;;;;2.25;1.25;;;;;;;22.01;66.52;100219.28;5178889;23;20023;-96
2023/09/18 05:03:21;;;;;;;1.40;1.30;;;;;;;21.64;65.88;100175.59;4932683;23;20064;-96
2023/09/18 05:05:47;;;;;;;2.65;1.25;;;;;;;21.83;66.15;100194.31;4885974;29;20189;-95
2023/09/18 05:08:13;;;;;;;6.40;0.70;;;;;;;21.68;65.87;100150.34;4870245;29;20041;-96
2023/09/18 05:10:38;;;;;;;3.63;1.58;;;;;;;21.83;65.97;100199.69;4891234;29;20099;-92
2023/09/18 05:13:04;;;;;;;2.25;1.23;;;;;;;21.82;66.10;100188.03;4898768;29;20092;-93
2023/09/18 05:15:30;;;;;;;5.45;1.88;;;;;;;21.99;65.91;100205.06;4882498;29;20033;-93
2023/09/18 05:17:57;;;;;;;11.63;1.77;;;;;;;21.98;65.85;100190.78;4880469;29;20576;-92
2023/09/18 05:20:24;;;;;;;2.70;1.20;;;;;;;22.15;65.44;100223.91;4874460;29;20072;-87
2023/09/18 05:22:54;;;;;;;2.92;1.38;;;;;;;21.86;65.46;100177.13;4877561;29;20124;-87
2023/09/18 05:25:24;;;;;;;1.27;0.90;;;;;;;22.05;65.56;100195.81;4875957;29;20077;-86
2023/09/18 05:28:00;;;;;;;1.63;1.52;;;;;;;22.19;64.34;100190.53;4876166;29;20049;-86
2023/09/18 05:30:38;;;;;;;1.38;0.95;;;;;;;22.28;63.08;100191.88;4876835;29;20560;-86
2023/09/18 05:33:05;;;;;;;1.10;1.00;;;;;;;22.40;62.66;100198.38;4878876;29;20056;-88
2023/09/18 05:35:31;;;;;;;2.92;1.77;;;;;;;22.43;61.60;100179.41;4890921;29;20032;-87
2023/09/18 05:37:58;;;;;;;12.05;1.85;;;;;;;22.59;60.33;100204.47;4887358;29;20077;-85
2023/09/18 05:40:26;;;;;;;2.53;1.88;;;;;;;22.40;60.18;100168.81;4880577;29;20036;-86
2023/09/18 05:42:53;;;;;;;3.20;1.98;;;;;;;22.47;59.90;100178.28;4876162;29;20567;-89
2023/09/18 05:45:19;;;;;;;1.02;0.85;;;;;;;22.76;59.62;100203.50;4888643;29;20066;-85
2023/09/18 05:47:44;;;;;;;2.88;1.10;;;;;;;22.70;58.74;100193.94;4900615;29;20112;-85
2023/09/18 05:50:14;;;;;;;2.30;1.17;;;;;;;22.96;58.92;100249.91;4906784;29;20116;-87
2023/09/18 05:52:41;;;;;;;0.60;0.47;;;;;;;22.69;58.31;100156.41;4895274;29;20037;-86
2023/09/18 05:55:09;;;;;;;2.67;1.23;;;;;;;22.83;57.98;100204.00;4907901;29;20029;-87
2023/09/18 05:57:35;;;;;;;1.33;0.90;;;;;;;22.88;58.11;100173.19;4908061;29;20121;-88
2023/09/18 06:00:01;;;;;;;4.60;1.90;;;;;;;23.09;58.21;100193.56;4898929;29;20046;-87
2023/09/18 06:02:26;;;;;;;2.25;1.60;;;;;;;23.14;57.27;100192.34;4910726;29;20092;-88
2023/09/18 06:04:57;;;;;;;1.35;0.77;;;;;;;23.36;56.45;100178.47;4908083;29;20036;-87
2023/09/18 06:07:24;;;;;;;2.40;1.48;;;;;;;23.22;56.23;100186.53;4906304;29;20043;-87
2023/09/18 06:09:50;;;;;;;2.10;0.77;;;;;;;23.47;55.22;100199.34;4902387;29;20045;-88
2023/09/18 06:12:15;;;;;;;1.02;0.75;;;;;;;23.67;55.94;100222.38;4894563;29;20180;-88
2023/09/18 06:14:42;;;;;;;4.45;1.75;;;;;;;23.75;55.62;100170.72;4909466;29;20524;-88
2023/09/18 06:17:30;;;;;;;4.30;1.42;;;;;;;24.11;54.47;100188.25;4910695;29;20036;-91
2023/09/18 06:23:21;;;;;;;5.43;1.10;;;;;;;24.79;53.34;100254.91;5135009;24;20068;-96
2023/09/18 06:25:56;;;;;;;1.67;1.17;;;;;;;24.39;53.21;100217.03;4864282;29;20088;-95
2023/09/18 06:28:23;;;;;;;1.70;1.02;;;;;;;24.21;52.84;100219.06;4879594;29;20424;-95
2023/09/18 06:30:48;;;;;;;2.00;1.10;;;;;;;23.78;53.25;100171.38;4867005;29;20100;-96
2023/09/18 06:33:39;;;;;;;;;;;;;;;;;;;;;
2023/09/18 06:36:13;;;;;;;1.13;0.70;;;;;;;24.31;51.60;100187.84;4862527;29;20469;-94
2023/09/18 06:38:49;;;;;;;1.50;0.85;;;;;;;24.74;50.82;100194.97;4856052;29;20519;-93
2023/09/18 06:41:27;;;;;;;0.57;0.57;;;;;;;24.67;50.40;100186.44;4836907;29;20622;-94
2023/09/18 06:44:04;;;;;;;0.80;0.70;;;;;;;24.69;51.52;100247.53;4858187;29;20038;-96
2023/09/18 06:46:30;;;;;;;1.33;0.80;;;;;;;24.26;50.99;100205.28;4857025;29;20032;-94
2023/09/18 06:49:30;;;;;;;1.42;0.93;;;;;;;24.30;50.80;100179.88;4878249;29;20052;-93
2023/09/18 06:51:56;;;;;;;2.13;1.13;;;;;;;24.29;51.21;100199.69;4868659;29;20501;-96
2023/09/18 06:54:23;;;;;;;2.88;2.28;;;;;;;24.52;50.31;100210.81;4891122;29;20033;-96
2023/09/18 06:57:15;;;;;;;1.20;0.80;;;;;;;24.88;50.88;100264.22;4931125;24;20041;-96
2023/09/18 06:59:41;;;;;;;2.35;1.00;;;;;;;24.89;49.68;100213.84;4855757;29;20050;-96
2023/09/18 07:03:04;;;;;;;;;;;;;;;;;;;;;
2023/09/18 07:05:37;;;;;;;0.50;0.50;;;;;;;24.98;49.08;100195.19;4821560;29;20054;-96
2023/09/18 07:08:59;;;;;;;11.50;1.85;;;;;;;24.95;48.74;100186.44;4825475;29;20098;-95
2023/09/18 07:11:27;;;;;;;1.20;0.70;;;;;;;24.86;49.10;100196.00;4805576;29;20542;-96
2023/09/18 07:13:57;;;;;;;3.85;1.35;;;;;;;24.93;49.24;100185.66;3041448;23;20351;-92
2023/09/18 07:19:52;;;;;;;1.35;0.95;;;;;;;25.62;48.83;100259.28;4892441;29;20105;-96
2023/09/18 07:25:11;;;;;;;1.38;1.13;;;;;;;25.85;46.46;100194.69;5840391;23;20015;-94
2023/09/18 07:38:34;;;;;;;0.70;0.68;;;;;;;25.91;47.15;100213.16;5145454;23;19924;-92
2023/09/18 07:41:15;;;;;;;0.75;0.60;;;;;;;26.41;45.69;100211.38;4881667;29;20091;-95
2023/09/18 07:43:41;;;;;;;0.50;0.50;;;;;;;26.32;45.59;100203.94;4863888;29;20160;-92
2023/09/18 07:49:22;;;;;;;1.25;0.75;;;;;;;25.83;46.39;100197.50;4986920;23;20056;-96
2023/09/18 07:52:13;;;;;;;5.40;0.82;;;;;;;26.13;46.26;100253.06;4882924;29;20508;-96
2023/09/18 07:54:43;;;;;;;1.63;0.63;;;;;;;25.90;46.76;100208.72;4864210;29;20512;-94
2023/09/18 07:57:11;;;;;;;2.42;0.88;;;;;;;26.01;45.55;100221.50;4882519;29;20041;-96
2023/09/18 07:59:38;;;;;;;7.07;0.93;;;;;;;26.24;45.92;100250.47;5064170;23;20174;-96
2023/09/18 08:05:13;;;;;;;5.35;1.48;;;;;;;26.13;44.86;100198.13;4891280;29;20057;-96
2023/09/18 08:08:55;;;;;;;0.80;0.57;;;;;;;26.22;44.67;100208.28;5002846;23;20057;-96
2023/09/18 08:14:24;;;;;;;1.67;0.88;;;;;;;25.88;46.42;100195.31;4892361;29;20100;-94
2023/09/18 08:17:12;;;;;;;4.55;0.93;;;;;;;25.45;46.73;100192.94;4811099;29;20050;-96
2023/09/18 08:22:43;;;;;;;6.03;1.13;;;;;;;25.91;45.55;100219.41;4886183;29;20061;-94
2023/09/18 08:25:10;;;;;;;4.32;1.52;;;;;;;25.86;46.05;100185.63;4863589;29;20101;-96
2023/09/18 08:27:41;;;;;;;1.63;1.05;;;;;;;25.60;45.85;100203.66;4863428;29;20064;-91
2023/09/18 08:30:10;;;;;;;1.23;0.57;;;;;;;25.78;45.91;100225.78;4861372;29;20419;-96
2023/09/18 08:32:36;;;;;;;0.95;0.65;;;;;;;25.73;45.76;100209.91;4850213;29;20037;-92
2023/09/18 08:35:02;;;;;;;0.70;0.70;;;;;;;26.66;46.00;100255.56;4857722;29;20036;-93
2023/09/18 08:37:28;;;;;;;0.82;0.75;;;;;;;26.60;44.00;100210.91;4855088;29;20432;-96
2023/09/18 08:39:54;;;;;;;2.55;0.93;;;;;;;26.14;44.91;100194.47;4901444;23;20433;-95
2023/09/18 08:42:20;;;;;;;0.90;0.75;;;;;;;25.95;44.96;100213.78;4883428;29;20036;-92
2023/09/18 08:44:51;;;;;;;1.75;0.85;;;;;;;26.18;44.95;100198.66;4897410;29;20103;-92
2023/09/18 08:47:18;;;;;;;1.23;0.65;;;;;;;26.17;44.02;100175.31;4895545;29;20131;-90
2023/09/18 08:49:47;;;;;;;2.08;1.45;;;;;;;25.92;43.52;100150.03;4861179;29;20412;-91
2023/09/18 08:52:15;;;;;;;2.60;0.95;;;;;;;26.23;43.30;100159.50;4890493;29;20113;-93
2023/09/18 08:54:40;;;;;;;0.90;0.50;;;;;;;25.66;43.94;100135.69;4867811;29;20397;-92
2023/09/18 08:57:07;;;;;;;3.40;1.58;;;;;;;26.55;43.46;100196.81;4878088;29;20105;-89
2023/09/18 08:59:35;;;;;;;0.90;0.77;;;;;;;26.85;43.34;100197.38;4877776;29;20033;-90
2023/09/18 09:02:01;;;;;;;1.17;0.98;;;;;;;26.72;42.87;100157.72;4877776;29;20555;-88
2023/09/18 09:04:26;;;;;;;1.33;0.82;;;;;;;27.04;42.64;100183.34;4877947;29;20115;-89
2023/09/18 09:06:52;;;;;;;2.30;1.83;;;;;;;27.12;42.14;100180.91;4877150;29;20077;-88
2023/09/18 09:09:19;;;;;;;1.17;1.02;;;;;;;27.39;41.59;100204.16;4888534;29;20036;-89
2023/09/18 09:11:50;;;;;;;1.02;0.50;;;;;;;26.97;41.28;100164.88;4879322;29;20044;-89
2023/09/18 09:14:19;;;;;;;1.40;0.77;;;;;;;27.08;41.22;100174.88;4877755;29;20151;-87
2023/09/18 09:16:49;;;;;;;9.05;1.17;;;;;;;27.29;40.70;100166.91;4887229;29;20381;-88
2023/09/18 09:19:18;;;;;;;1.65;0.77;;;;;;;27.03;41.58;100155.38;4880865;29;20114;-88
2023/09/18 09:21:44;;;;;;;1.90;0.80;;;;;;;26.84;41.15;100163.22;4895825;29;20044;-88
2023/09/18 09:24:17;;;;;;;1.65;0.73;;;;;;;26.84;41.73;100145.13;4896075;29;20028;-87
2023/09/18 09:26:58;;;;;;;0.70;0.50;;;;;;;26.79;40.41;100169.81;4886516;29;20016;-92
2023/09/18 09:29:24;;;;;;;1.63;1.05;;;;;;;26.60;41.63;100137.84;4967934;23;20057;-94
2023/09/18 09:31:50;;;;;;;4.57;1.35;;;;;;;26.74;41.97;100146.78;4846502;29;20037;-94
2023/09/18 09:34:37;;;;;;;1.73;1.25;;;;;;;26.92;40.68;100144.53;4897855;23;20136;-96
2023/09/18 09:37:11;;;;;;;1.58;1.25;;;;;;;26.70;40.37;100132.63;4866198;29;20112;-93
2023/09/18 09:40:14;;;;;;;11.25;0.88;;;;;;;26.39;40.08;100151.13;4862392;29;20109;-94
2023/09/18 09:42:51;;;;;;;1.45;0.90;;;;;;;27.09;40.33;100164.91;4784224;29;20069;-96
2023/09/18 09:45:17;;;;;;;1.65;1.05;;;;;;;27.34;40.47;100172.00;4788824;29;20042;-93
2023/09/18 09:47:43;;;;;;;1.30;0.65;;;;;;;27.55;39.25;100172.19;4786287;29;20046;-92
2023/09/18 09:50:10;;;;;;;0.30;0.30;;;;;;;27.52;40.24;100167.00;4793205;29;20043;-91
2023/09/18 09:52:42;;;;;;;1.48;1.15;;;;;;;27.64;39.42;100119.13;4789477;29;20047;-91
2023/09/18 09:55:34;;;;;;;2.05;1.40;;;;;;;27.33;39.65;100141.38;4789282;29;20039;-90
2023/09/18 09:58:01;;;;;;;1.25;0.85;;;;;;;26.92;39.67;100123.72;4798416;29;20066;-91
2023/09/18 10:00:45;;;;;;;2.05;1.40;;;;;;;26.98;39.71;100193.63;4801595;29;20039;-96
2023/09/18 10:03:12;;;;;;;1.95;1.17;;;;;;;26.40;40.54;100128.53;4800729;29;20436;-89
2023/09/18 10:05:43;;;;;;;2.15;1.15;;;;;;;26.43;39.78;100138.22;4797447;29;20088;-90
2023/09/18 10:08:15;;;;;;;1.10;0.95;;;;;;;26.65;39.38;100109.56;4794820;29;20065;-90
2023/09/18 10:10:52;;;;;;;0.93;0.68;;;;;;;26.78;38.99;100141.03;4789253;29;20088;-91
2023/09/18 10:13:27;;;;;;;2.40;1.35;;;;;;;26.72;39.26;100119.00;4800424;29;20050;-91
2023/09/18 10:15:54;;;;;;;1.73;1.10;;;;;;;26.60;39.10;100131.56;4799585;29;20047;-90
2023/09/18 10:18:37;;;;;;;1.33;0.88;;;;;;;26.67;39.33;100122.03;4799851;29;20089;-91
2023/09/18 10:21:41;;;;;;;0.88;0.68;;;;;;;26.72;38.18;100137.94;4857907;29;20137;-90
2023/09/18 10:24:15;;;;;;;1.85;1.00;;;;;;;27.03;39.19;100170.78;4782310;30;20546;-90
2023/09/18 10:26:58;;;;;;;1.70;0.90;;;;;;;27.00;41.55;100120.44;4773262;29;20528;-88
2023/09/18 10:29:24;;;;;;;1.67;0.75;;;;;;;27.07;38.93;100115.44;4767376;29;20058;-90
2023/09/18 10:31:52;;;;;;;4.30;1.38;;;;;;;27.14;38.74;100124.78;4757536;30;20035;-91
2023/09/18 10:34:19;;;;;;;3.97;1.35;;;;;;;27.12;38.64;100118.63;4760071;30;20164;-88
2023/09/18 10:36:48;;;;;;;1.73;1.58;;;;;;;27.01;38.95;100118.63;4780222;30;20643;-87
2023/09/18 10:39:19;;;;;;;2.97;1.52;;;;;;;26.87;39.16;100109.69;4782248;29;20435;-90
2023/09/18 10:41:49;;;;;;;1.27;0.88;;;;;;;26.61;39.87;100081.91;4755861;30;20070;-89
2023/09/18 10:44:19;;;;;;;1.33;0.85;;;;;;;26.61;39.25;100065.66;4781255;30;20517;-87
2023/09/18 10:46:46;;;;;;;1.48;1.00;;;;;;;26.77;38.69;100097.84;4781466;30;20047;-88
2023/09/18 10:49:12;;;;;;;3.95;1.23;;;;;;;26.98;38.60;100119.69;4782375;30;20039;-88
2023/09/18 10:51:42;;;;;;;1.25;1.10;;;;;;;26.64;38.83;100087.06;4782085;30;20108;-86
2023/09/18 10:54:14;;;;;;;1.88;0.95;;;;;;;26.36;37.87;100067.53;4782350;29;20886;-89
2023/09/18 10:56:41;;;;;;;1.38;0.80;;;;;;;26.93;37.63;100122.75;4782123;30;20047;-87
2023/09/18 10:59:08;;;;;;;1.15;0.52;;;;;;;26.37;37.83;100069.25;4804655;29;20046;-87
2023/09/18 11:01:37;;;;;;;0.43;0.40;;;;;;;27.05;37.29;100099.31;4863871;29;20086;-90
2023/09/18 11:04:08;;;;;;;1.25;0.93;;;;;;;27.14;38.06;100092.28;4862270;29;20037;-89
2023/09/18 11:06:59;;;;;;;1.73;0.70;;;;;;;27.46;36.74;100122.28;4863797;29;20033;-89
2023/09/18 11:09:27;;;;;;;3.03;2.00;;;;;;;26.85;37.28;100049.44;4858550;29;20512;-90
2023/09/18 11:11:57;;;;;;;0.93;0.63;;;;;;;27.36;38.25;100082.50;4856923;29;20050;-89
2023/09/18 11:14:49;;;;;;;1.95;1.10;;;;;;;27.20;37.00;100031.41;4858640;29;20116;-88
2023/09/18 11:17:31;;;;;;;1.20;0.80;;;;;;;27.19;37.55;100043.19;4858596;29;20029;-89
2023/09/18 11:20:09;;;;;;;1.23;0.88;;;;;;;27.77;37.34;100109.00;4871324;29;20045;-89
2023/09/18 11:22:37;;;;;;;0.98;0.52;;;;;;;27.75;36.02;100064.06;4857767;29;20060;-88
2023/09/18 11:25:42;;;;;;;2.40;0.90;;;;;;;28.29;35.88;100100.34;4858434;29;20029;-88
2023/09/18 11:28:24;;;;;;;0.88;0.60;;;;;;;27.66;35.74;100028.56;4873273;29;20097;-88
2023/09/18 11:30:58;;;;;;;1.08;0.63;;;;;;;27.67;34.95;100043.88;4871577;29;20112;-89
2023/09/18 11:33:37;;;;;;;1.85;0.68;;;;;;;28.06;35.33;100099.53;4856572;29;20564;-89
2023/09/18 11:36:14;;;;;;;2.03;0.85;;;;;;;27.56;36.71;100048.41;4857702;29;20043;-90
2023/09/18 11:38:57;;;;;;;0.93;0.63;;;;;;;27.68;35.77;100044.72;4856804;29;20037;-86
2023/09/18 11:41:25;;;;;;;1.42;0.77;;;;;;;28.07;36.68;100044.31;4857353;29;20037;-87
2023/09/18 11:43:52;;;;;;;0.70;0.70;;;;;;;28.03;35.29;100031.00;4860737;29;20074;-89
2023/09/18 11:46:20;;;;;;;1.45;1.02;;;;;;;27.99;34.19;100028.69;4860532;29;20037;-86
2023/09/18 11:48:50;;;;;;;2.35;0.95;;;;;;;28.17;33.67;100067.81;4864014;29;20029;-87
2023/09/18 11:51:21;;;;;;;1.52;1.33;;;;;;;27.99;34.28;100029.56;4860586;29;20531;-87
2023/09/18 11:53:49;;;;;;;1.92;1.27;;;;;;;28.03;33.67;100041.84;4860828;29;20076;-88
2023/09/18 11:56:17;;;;;;;2.40;0.88;;;;;;;28.21;34.34;100030.47;4860776;29;20033;-86
2023/09/18 11:58:51;;;;;;;1.70;0.88;;;;;;;28.29;33.42;100046.13;4861434;29;20037;-86
2023/09/18 12:01:18;;;;;;;2.08;1.33;;;;;;;28.20;32.42;100017.91;4860346;29;20045;-89
2023/09/18 12:03:44;;;;;;;1.85;1.25;;;;;;;28.19;33.00;100038.75;4869486;29;20132;-92
2023/09/18 12:06:14;;;;;;;1.40;0.82;;;;;;;27.63;33.42;100012.56;4879002;29;20629;-90
2023/09/18 12:08:40;;;;;;;6.53;1.17;;;;;;;27.99;33.54;100005.16;4878182;29;21137;-88
2023/09/18 12:11:06;;;;;;;1.17;0.73;;;;;;;28.20;33.66;100015.19;4878964;29;20037;-88
2023/09/18 12:13:32;;;;;;;0.52;0.52;;;;;;;27.96;33.24;100018.09;4878905;29;20522;-88
2023/09/18 12:16:05;;;;;;;0.65;0.60;;;;;;;28.01;34.16;100022.16;4878905;29;20025;-88
2023/09/18 12:18:36;;;;;;;1.38;0.75;;;;;;;28.16;33.13;100055.28;4878947;29;20037;-89
2023/09/18 12:21:06;;;;;;;1.83;0.73;;;;;;;28.36;32.67;100061.75;4862173;29;20053;-89
2023/09/18 12:23:39;;;;;;;0.98;0.60;;;;;;;27.91;32.91;100007.59;4878741;29;20049;-91
2023/09/18 12:26:06;;;;;;;1.10;0.85;;;;;;;28.15;32.57;100026.44;4878823;29;20036;-90
2023/09/18 12:28:36;;;;;;;1.95;1.27;;;;;;;28.21;32.37;100061.16;4861958;29;20471;-94
2023/09/18 12:31:06;;;;;;;2.00;1.17;;;;;;;27.83;33.53;99973.00;4857415;29;20033;-91
2023/09/18 12:33:36;;;;;;;1.00;0.60;;;;;;;28.45;32.12;100043.81;4859366;29;20052;-90
2023/09/18 12:36:03;;;;;;;2.08;0.93;;;;;;;28.00;31.88;99993.31;4859648;29;20127;-90
2023/09/18 12:38:30;;;;;;;0.98;0.45;;;;;;;28.03;31.64;100005.75;4859116;29;20036;-89
2023/09/18 12:40:56;;;;;;;1.50;1.27;;;;;;;28.15;32.53;100004.72;4859856;29;20033;-88
2023/09/18 12:43:23;;;;;;;1.38;1.05;;;;;;;28.12;32.42;99958.91;4859959;29;20040;-90
2023/09/18 12:45:50;;;;;;;1.83;1.00;;;;;;;28.00;31.45;99985.19;4858928;29;20044;-89
2023/09/18 12:48:15;;;;;;;1.65;0.70;;;;;;;27.92;30.79;99965.97;4859466;29;20043;-90